createdAt,value
2022-12-18T00:01:53.688Z,53.70
2022-12-18T00:04:41.747Z,56.74
2022-12-18T00:07:23.675Z,59.10
2022-12-18T00:10:15.465Z,60.33
2022-12-18T00:12:49.816Z,66.17
2022-12-18T00:15:37.706Z,60.54
2022-12-18T00:18:32.817Z,48.11
2022-12-18T00:21:27.818Z,49.95
2022-12-18T00:24:23.742Z,54.08
2022-12-18T00:27:18.810Z,57.10
2022-12-18T00:30:13.708Z,60.22
2022-12-18T00:33:08.737Z,61.05
2022-12-18T00:36:03.701Z,70.41
2022-12-18T00:38:59.787Z,62.17
2022-12-18T00:42:05.738Z,47.45
2022-12-18T00:44:53.710Z,48.81
2022-12-18T00:47:34.859Z,51.79
2022-12-18T00:50:22.719Z,54.91
2022-12-18T00:53:04.711Z,57.41
2022-12-18T00:55:59.694Z,59.44
2022-12-18T00:58:47.711Z,60.99
2022-12-18T01:01:22.949Z,70.25
2022-12-18T01:04:10.663Z,64.68
2022-12-18T01:06:45.831Z,47.86
2022-12-18T01:09:34.808Z,46.63
2022-12-18T01:12:09.843Z,49.61
2022-12-18T01:15:04.786Z,52.45
2022-12-18T01:17:59.670Z,56.24
2022-12-18T01:20:54.680Z,58.63
2022-12-18T01:23:49.674Z,60.50
2022-12-18T01:26:44.695Z,61.06
2022-12-18T01:29:39.736Z,67.33
2022-12-18T01:32:34.855Z,64.74
2022-12-18T01:35:29.672Z,48.03
2022-12-18T01:38:37.693Z,47.95
2022-12-18T01:42:05.667Z,52.26
2022-12-18T01:45:13.658Z,54.42
2022-12-18T01:48:12.678Z,57.08
2022-12-18T01:51:07.657Z,58.72
2022-12-18T01:53:55.693Z,60.58
2022-12-18T01:56:30.797Z,69.85
2022-12-18T01:59:19.687Z,65.76
2022-12-18T02:02:14.815Z,47.30
2022-12-18T02:05:09.693Z,47.03
2022-12-18T02:08:36.725Z,50.39
2022-12-18T02:11:55.779Z,54.41
2022-12-18T02:14:42.827Z,57.38
2022-12-18T02:17:36.685Z,59.49
2022-12-18T02:20:39.840Z,60.82
2022-12-18T02:23:49.818Z,61.92
2022-12-18T02:26:34.810Z,73.82
2022-12-18T02:29:30.810Z,60.21
2022-12-18T02:32:06.872Z,46.83
2022-12-18T02:34:54.692Z,47.92
2022-12-18T02:37:30.965Z,51.97
2022-12-18T02:40:20.848Z,54.01
2022-12-18T02:42:55.984Z,56.85
2022-12-18T02:45:43.735Z,57.64
2022-12-18T02:48:44.677Z,59.43
2022-12-18T02:51:46.666Z,59.77
2022-12-18T02:55:10.807Z,60.31
2022-12-18T02:58:24.856Z,60.95
2022-12-18T03:01:32.979Z,60.87
2022-12-18T03:04:37.798Z,61.30
2022-12-18T03:07:17.824Z,61.80
2022-12-18T03:10:05.658Z,69.83
2022-12-18T03:13:08.670Z,74.07
2022-12-18T03:16:06.667Z,55.04
2022-12-18T03:19:06.677Z,45.96
2022-12-18T03:22:04.695Z,48.64
2022-12-18T03:25:00.657Z,50.82
2022-12-18T03:27:54.681Z,53.67
2022-12-18T03:30:29.852Z,55.28
2022-12-18T03:33:33.675Z,55.67
2022-12-18T03:36:15.672Z,55.54
2022-12-18T03:39:10.626Z,57.70
2022-12-18T03:42:12.673Z,60.00
2022-12-18T03:45:28.646Z,60.81
2022-12-18T03:48:24.670Z,73.80
2022-12-18T03:51:08.751Z,62.27
2022-12-18T03:54:16.661Z,47.39
2022-12-18T03:56:54.792Z,47.25
2022-12-18T03:59:43.614Z,51.03
2022-12-18T04:02:25.725Z,52.95
2022-12-18T04:05:08.848Z,54.35
2022-12-18T04:07:56.664Z,56.07
2022-12-18T04:10:44.648Z,58.63
2022-12-18T04:13:36.932Z,60.12
2022-12-18T04:16:12.827Z,59.14
2022-12-18T04:19:01.670Z,60.68
2022-12-18T04:21:56.650Z,60.35
2022-12-18T04:24:51.673Z,61.56
2022-12-18T04:27:46.648Z,68.03
2022-12-18T04:30:34.640Z,70.44
2022-12-18T04:33:08.892Z,53.35
2022-12-18T04:35:56.655Z,47.08
2022-12-18T04:38:44.856Z,48.99
2022-12-18T04:41:25.647Z,51.82
2022-12-18T04:44:13.659Z,53.63
2022-12-18T04:46:48.963Z,54.64
2022-12-18T04:49:36.649Z,55.86
2022-12-18T04:52:11.782Z,57.49
2022-12-18T04:54:59.634Z,57.76
2022-12-18T04:57:54.823Z,59.61
2022-12-18T05:00:49.648Z,60.68
2022-12-18T05:03:46.022Z,60.50
2022-12-18T05:06:34.640Z,61.60
2022-12-18T05:09:29.636Z,65.58
2022-12-18T05:12:24.648Z,74.18
2022-12-18T05:15:20.636Z,55.08
2022-12-18T05:18:08.647Z,46.15
2022-12-18T05:20:50.638Z,48.22
2022-12-18T05:23:45.649Z,51.18
2022-12-18T05:26:40.645Z,53.71
2022-12-18T05:29:36.628Z,55.07
2022-12-18T05:32:24.633Z,57.18
2022-12-18T05:34:59.877Z,56.83
2022-12-18T05:37:47.641Z,60.09
2022-12-18T05:40:29.572Z,69.09
2022-12-18T05:43:25.632Z,66.76
2022-12-18T05:46:23.835Z,49.13
2022-12-18T05:49:18.814Z,47.24
2022-12-18T05:52:06.752Z,50.59
2022-12-18T05:55:01.632Z,53.16
2022-12-18T05:57:56.635Z,54.94
2022-12-18T06:00:53.619Z,56.21
2022-12-18T06:03:41.971Z,57.50
2022-12-18T06:06:43.630Z,57.62
2022-12-18T06:09:38.626Z,58.49
2022-12-18T06:12:33.625Z,61.63
2022-12-18T06:15:28.637Z,74.67
2022-12-18T06:18:23.815Z,61.91
2022-12-18T06:21:18.605Z,47.37
2022-12-18T06:24:14.619Z,48.43
2022-12-18T06:27:02.613Z,51.96
2022-12-18T06:29:37.772Z,54.92
2022-12-18T06:32:25.619Z,57.67
2022-12-18T06:35:14.626Z,59.24
2022-12-18T06:37:49.049Z,60.83
2022-12-18T06:40:36.618Z,69.65
2022-12-18T06:43:11.031Z,64.23
2022-12-18T06:46:00.662Z,49.33
2022-12-18T06:48:42.630Z,46.71
2022-12-18T06:51:38.607Z,50.02
2022-12-18T06:54:33.628Z,51.89
2022-12-18T06:57:28.782Z,53.41
2022-12-18T07:00:23.604Z,56.09
2022-12-18T07:03:18.617Z,58.71
2022-12-18T07:06:06.600Z,57.17
2022-12-18T07:08:41.768Z,58.50
2022-12-18T07:11:29.609Z,60.28
2022-12-18T07:14:04.742Z,61.36
2022-12-18T07:16:52.791Z,70.31
2022-12-18T07:19:47.586Z,66.63
2022-12-18T07:22:35.618Z,49.15
2022-12-18T07:25:30.542Z,47.12
2022-12-18T07:28:20.623Z,49.34
2022-12-18T07:31:02.792Z,51.52
2022-12-18T07:33:58.612Z,52.73
2022-12-18T07:36:53.720Z,53.73
2022-12-18T07:39:43.701Z,55.23
2022-12-18T07:42:40.750Z,55.83
2022-12-18T07:45:35.779Z,57.41
2022-12-18T07:48:30.608Z,59.63
2022-12-18T07:51:25.758Z,59.95
2022-12-18T07:54:22.808Z,60.29
2022-12-18T07:57:41.803Z,67.10
2022-12-18T08:00:32.594Z,63.56
2022-12-18T08:03:28.067Z,47.66
2022-12-18T08:06:24.951Z,46.49
2022-12-18T08:09:12.606Z,50.37
2022-12-18T08:11:47.729Z,51.32
2022-12-18T08:14:35.600Z,53.18
2022-12-18T08:17:17.582Z,54.15
2022-12-18T08:20:05.775Z,54.45
2022-12-18T08:22:52.790Z,54.62
2022-12-18T08:25:43.797Z,55.44
2022-12-18T08:28:32.760Z,56.17
2022-12-18T08:31:09.770Z,55.89
2022-12-18T08:33:57.585Z,55.47
2022-12-18T08:36:32.301Z,55.50
2022-12-18T08:39:20.749Z,56.15
2022-12-18T08:42:33.773Z,55.64
2022-12-18T08:45:28.946Z,56.26
2022-12-18T08:48:23.778Z,55.81
2022-12-18T08:51:11.905Z,57.11
2022-12-18T08:53:46.792Z,58.01
2022-12-18T08:56:41.743Z,58.73
2022-12-18T08:59:36.576Z,58.80
2022-12-18T09:02:31.823Z,58.15
2022-12-18T09:05:26.593Z,58.09
2022-12-18T09:08:22.674Z,57.47
2022-12-18T09:11:17.593Z,56.63
2022-12-18T09:14:13.584Z,56.82
2022-12-18T09:17:09.158Z,56.68
2022-12-18T09:20:04.600Z,56.69
2022-12-18T09:22:59.741Z,57.52
2022-12-18T09:25:47.589Z,57.94
2022-12-18T09:28:24.713Z,58.29
2022-12-18T09:31:15.886Z,58.13
2022-12-18T09:33:59.580Z,57.89
2022-12-18T09:36:55.836Z,57.47
2022-12-18T09:39:43.671Z,56.96
2022-12-18T09:42:29.729Z,56.86
2022-12-18T09:45:28.766Z,56.54
2022-12-18T09:48:44.562Z,56.33
2022-12-18T09:51:47.780Z,55.84
2022-12-18T09:54:54.604Z,56.15
2022-12-18T09:57:54.612Z,55.54
2022-12-18T10:00:43.064Z,55.20
2022-12-18T10:03:21.475Z,55.26
2022-12-18T10:07:18.661Z,54.83
2022-12-18T10:10:21.615Z,54.40
2022-12-18T10:13:36.614Z,54.20
2022-12-18T10:16:37.761Z,54.13
2022-12-18T10:20:13.622Z,53.66
2022-12-18T10:23:13.582Z,53.13
2022-12-18T10:26:20.570Z,53.03
2022-12-18T10:29:16.562Z,53.38
2022-12-18T10:32:11.705Z,53.87
2022-12-18T10:35:11.346Z,53.71
2022-12-18T10:38:36.673Z,53.50
2022-12-18T10:41:34.718Z,54.05
2022-12-18T10:44:38.411Z,53.88
2022-12-18T10:47:27.556Z,54.01
2022-12-18T10:50:02.719Z,54.00
2022-12-18T10:52:57.770Z,54.19
2022-12-18T10:55:55.186Z,53.68
2022-12-18T10:58:46.221Z,53.83
2022-12-18T11:01:23.056Z,53.81
2022-12-18T11:04:16.670Z,53.38
2022-12-18T11:07:10.546Z,53.87
2022-12-18T11:10:30.753Z,53.80
2022-12-18T11:13:35.780Z,54.11
2022-12-18T11:16:34.632Z,53.71
2022-12-18T11:19:41.545Z,54.33
2022-12-18T11:22:42.550Z,53.12
2022-12-18T11:25:34.697Z,52.94
2022-12-18T11:28:44.454Z,53.47
2022-12-18T11:31:43.635Z,52.40
2022-12-18T11:34:45.748Z,51.75
2022-12-18T11:37:40.541Z,52.77
2022-12-18T11:40:41.351Z,52.47
2022-12-18T11:43:22.091Z,51.97
2022-12-18T11:46:20.095Z,51.51
2022-12-18T11:49:21.549Z,51.62
2022-12-18T11:52:33.536Z,51.68
2022-12-18T11:55:34.558Z,51.34
2022-12-18T11:58:42.733Z,51.01
2022-12-18T12:01:46.637Z,50.60
2022-12-18T12:04:56.633Z,50.45
2022-12-18T12:08:24.734Z,51.00
2022-12-18T12:11:57.535Z,50.31
2022-12-18T12:15:30.635Z,50.21
2022-12-18T12:18:46.612Z,50.30
2022-12-18T12:21:55.759Z,50.69
2022-12-18T12:25:35.541Z,50.55
2022-12-18T12:28:34.548Z,49.97
2022-12-18T12:31:28.579Z,50.25
2022-12-18T12:34:15.684Z,50.26
2022-12-18T12:37:32.529Z,49.86
2022-12-18T12:40:48.798Z,49.09
2022-12-18T12:43:51.955Z,49.10
2022-12-18T12:46:41.591Z,50.85
2022-12-18T12:49:31.191Z,52.04
2022-12-18T12:52:47.540Z,50.55
2022-12-18T12:55:44.864Z,50.01
2022-12-18T12:58:40.529Z,51.04
2022-12-18T13:01:55.656Z,50.37
2022-12-18T13:05:01.532Z,52.93
2022-12-18T13:08:10.537Z,53.40
2022-12-18T13:11:11.592Z,54.14
2022-12-18T13:14:03.527Z,54.74
2022-12-18T13:16:38.672Z,53.98
2022-12-18T13:19:32.527Z,52.57
2022-12-18T13:22:35.534Z,52.56
2022-12-18T13:25:49.570Z,53.93
2022-12-18T13:28:47.612Z,53.34
2022-12-18T13:31:54.535Z,53.33
2022-12-18T13:34:37.071Z,54.49
2022-12-18T13:37:55.521Z,54.13
2022-12-18T13:40:55.596Z,52.71
2022-12-18T13:43:50.506Z,52.23
2022-12-18T13:46:25.803Z,53.31
2022-12-18T13:49:22.721Z,54.31
2022-12-18T13:51:59.848Z,53.93
2022-12-18T13:54:48.512Z,53.53
2022-12-18T13:57:48.724Z,53.15
2022-12-18T14:00:39.526Z,53.52
2022-12-18T14:03:33.661Z,54.16
2022-12-18T14:06:29.029Z,54.84
2022-12-18T14:09:41.630Z,55.64
2022-12-18T14:13:01.094Z,56.99
2022-12-18T14:15:54.517Z,56.54
2022-12-18T14:19:13.851Z,56.91
2022-12-18T14:22:10.641Z,57.02
2022-12-18T14:25:28.583Z,57.22
2022-12-18T14:28:16.550Z,57.87
2022-12-18T14:31:11.575Z,58.62
2022-12-18T14:34:07.512Z,58.80
2022-12-18T14:37:10.946Z,59.12
2022-12-18T14:40:16.659Z,59.95
2022-12-18T14:43:11.531Z,59.94
2022-12-18T14:46:07.598Z,60.86
2022-12-18T14:48:57.499Z,60.94
2022-12-18T14:51:44.562Z,61.71
2022-12-18T14:54:40.494Z,61.98
2022-12-18T14:57:32.512Z,72.30
2022-12-18T15:00:27.635Z,75.04
2022-12-18T15:03:16.570Z,58.64
2022-12-18T15:05:51.636Z,46.49
2022-12-18T15:08:44.487Z,46.12
2022-12-18T15:11:42.649Z,48.53
2022-12-18T15:14:43.496Z,50.22
2022-12-18T15:17:43.506Z,51.63
2022-12-18T15:20:38.504Z,52.13
2022-12-18T15:23:43.891Z,52.67
2022-12-18T15:26:39.493Z,54.70
2022-12-18T15:29:29.507Z,56.31
2022-12-18T15:32:08.662Z,56.42
2022-12-18T15:34:56.492Z,56.44
2022-12-18T15:37:38.507Z,57.19
2022-12-18T15:40:37.903Z,57.77
2022-12-18T15:43:44.387Z,58.23
2022-12-18T15:46:34.725Z,58.83
2022-12-18T15:49:29.522Z,61.36
2022-12-18T15:52:20.651Z,61.98
2022-12-18T15:55:20.572Z,72.49
2022-12-18T15:58:15.506Z,72.20
2022-12-18T16:01:14.805Z,56.48
2022-12-18T16:04:09.559Z,47.00
2022-12-18T16:07:14.482Z,46.54
2022-12-18T16:10:10.735Z,47.94
2022-12-18T16:13:05.636Z,52.19
2022-12-18T16:16:00.653Z,52.14
2022-12-18T16:18:48.618Z,53.46
2022-12-18T16:21:44.518Z,54.80
2022-12-18T16:24:50.638Z,57.61
2022-12-18T16:27:46.510Z,56.50
2022-12-18T16:30:39.799Z,58.14
2022-12-18T16:33:18.672Z,59.71
2022-12-18T16:36:06.936Z,59.31
2022-12-18T16:38:45.144Z,59.11
2022-12-18T16:41:39.637Z,60.97
2022-12-18T16:44:15.195Z,61.47
2022-12-18T16:47:10.296Z,61.00
2022-12-18T16:49:52.480Z,64.61
2022-12-18T16:52:49.496Z,78.04
2022-12-18T16:55:45.561Z,64.54
2022-12-18T16:58:33.920Z,54.66
2022-12-18T17:01:08.852Z,48.71
2022-12-18T17:04:14.686Z,40.97
2022-12-18T17:06:55.009Z,41.15
2022-12-18T17:09:45.666Z,44.05
2022-12-18T17:12:40.479Z,45.95
2022-12-18T17:15:35.478Z,48.40
2022-12-18T17:18:30.761Z,50.00
2022-12-18T17:21:28.478Z,50.65
2022-12-18T17:24:24.719Z,50.99
2022-12-18T17:27:23.572Z,52.43
2022-12-18T17:30:12.480Z,53.15
2022-12-18T17:32:47.626Z,54.01
2022-12-18T17:35:40.735Z,54.17
2022-12-18T17:38:15.779Z,54.78
2022-12-18T17:41:10.652Z,55.26
2022-12-18T17:43:46.666Z,55.90
2022-12-18T17:46:37.525Z,56.38
2022-12-18T17:49:17.590Z,57.43
2022-12-18T17:52:13.559Z,58.10
2022-12-18T17:55:09.435Z,58.12
2022-12-18T17:57:59.455Z,58.55
2022-12-18T18:00:35.535Z,59.65
2022-12-18T18:03:24.810Z,60.41
2022-12-18T18:06:10.530Z,62.24
2022-12-18T18:09:05.479Z,77.41
2022-12-18T18:12:13.502Z,66.53
2022-12-18T18:14:48.717Z,50.12
2022-12-18T18:17:47.120Z,45.79
2022-12-18T18:20:37.674Z,47.48
2022-12-18T18:23:37.593Z,49.15
2022-12-18T18:26:36.486Z,50.64
2022-12-18T18:29:37.469Z,51.43
2022-12-18T18:32:32.475Z,52.70
2022-12-18T18:35:52.963Z,53.74
2022-12-18T18:38:48.403Z,53.93
2022-12-18T18:41:37.620Z,54.75
2022-12-18T18:44:15.809Z,55.78
2022-12-18T18:47:19.011Z,57.03
2022-12-18T18:50:17.268Z,57.57
2022-12-18T18:53:12.565Z,59.71
2022-12-18T18:59:30.296Z,60.72
2022-12-18T19:02:09.806Z,64.94
2022-12-18T19:04:58.741Z,77.52
2022-12-18T19:07:33.584Z,64.68
2022-12-18T19:10:28.519Z,50.97
2022-12-18T19:13:28.474Z,45.62
2022-12-18T19:16:23.551Z,47.70
2022-12-18T19:19:29.037Z,49.58
2022-12-18T19:22:18.887Z,51.34
2022-12-18T19:25:06.506Z,52.44
2022-12-18T19:28:03.726Z,52.92
2022-12-18T19:30:59.383Z,53.52
2022-12-18T19:33:43.462Z,54.84
2022-12-18T19:36:35.759Z,55.61
2022-12-18T19:39:16.603Z,55.82
2022-12-18T19:42:04.549Z,56.56
2022-12-18T19:44:59.662Z,57.27
2022-12-18T19:48:02.626Z,60.58
2022-12-18T19:51:00.456Z,59.78
2022-12-18T19:53:58.894Z,61.01
2022-12-18T19:56:47.643Z,61.78
2022-12-18T19:59:31.005Z,77.34
2022-12-18T20:02:28.892Z,66.89
2022-12-18T20:05:36.540Z,54.30
2022-12-18T20:08:24.583Z,47.02
2022-12-18T20:10:59.578Z,41.65
2022-12-18T20:13:50.910Z,37.58
2022-12-18T20:16:47.512Z,40.00
2022-12-18T20:19:43.578Z,42.92
2022-12-18T20:22:41.474Z,44.98
2022-12-18T20:25:39.623Z,46.62
2022-12-18T20:28:40.405Z,48.14
2022-12-18T20:31:38.499Z,49.59
2022-12-18T20:34:34.620Z,51.04
2022-12-18T20:37:30.649Z,52.68
2022-12-18T20:40:32.296Z,53.80
2022-12-18T20:46:37.639Z,62.11
2022-12-18T20:49:12.748Z,49.98
2022-12-18T20:52:07.012Z,44.18
2022-12-18T20:55:01.449Z,40.67
2022-12-18T20:57:56.416Z,36.99
2022-12-18T21:00:57.174Z,34.06
2022-12-18T21:03:56.493Z,37.62
2022-12-18T21:06:49.405Z,41.03
2022-12-18T21:09:47.647Z,43.77
2022-12-18T21:12:48.137Z,46.15
2022-12-18T21:15:35.694Z,47.87
2022-12-18T21:18:29.056Z,49.40
2022-12-18T21:21:14.290Z,50.86
2022-12-18T21:24:12.415Z,67.01
2022-12-18T21:27:00.424Z,54.59
2022-12-18T21:29:35.600Z,46.15
2022-12-18T21:32:33.377Z,42.04
2022-12-18T21:35:28.416Z,39.03
2022-12-18T21:38:27.485Z,37.55
2022-12-18T21:41:42.618Z,32.99
2022-12-18T21:44:30.413Z,34.61
2022-12-18T21:47:17.584Z,38.10
2022-12-18T21:50:11.422Z,40.34
2022-12-18T21:52:54.772Z,43.42
2022-12-18T21:55:49.404Z,45.75
2022-12-18T21:58:37.401Z,47.22
2022-12-18T22:01:12.582Z,48.74
2022-12-18T22:04:00.474Z,57.45
2022-12-18T22:06:55.632Z,61.43
2022-12-18T22:09:47.416Z,48.16
2022-12-18T22:12:35.852Z,42.74
2022-12-18T22:15:31.421Z,39.22
2022-12-18T22:18:06.739Z,36.91
2022-12-18T22:20:54.418Z,34.88
2022-12-18T22:23:36.397Z,31.65
2022-12-18T22:26:24.395Z,34.04
2022-12-18T22:29:24.457Z,37.47
2022-12-18T22:32:31.196Z,40.49
2022-12-18T22:35:26.401Z,43.48
2022-12-18T22:38:21.403Z,44.33
2022-12-18T22:41:09.671Z,46.81
2022-12-18T22:43:44.528Z,52.00
2022-12-18T22:46:39.664Z,63.23
2022-12-18T22:49:37.411Z,50.54
2022-12-18T22:52:32.392Z,43.04
2022-12-18T22:55:27.781Z,39.55
2022-12-18T22:58:15.432Z,37.65
2022-12-18T23:00:57.398Z,36.02
2022-12-18T23:03:52.414Z,34.40
2022-12-18T23:06:47.392Z,31.59
2022-12-18T23:09:35.388Z,34.70
2022-12-18T23:12:10.526Z,36.90
2022-12-18T23:14:58.416Z,39.62
2022-12-18T23:17:33.578Z,42.56
2022-12-18T23:20:28.406Z,44.48
2022-12-18T23:23:23.367Z,46.71
2022-12-18T23:26:14.394Z,51.16
2022-12-18T23:29:04.024Z,61.82
2022-12-18T23:31:54.485Z,48.84
2022-12-18T23:34:29.533Z,41.44
2022-12-18T23:37:56.965Z,38.16
2022-12-18T23:40:32.381Z,35.70
2022-12-18T23:43:07.517Z,34.14
2022-12-18T23:46:02.401Z,30.68
2022-12-18T23:48:57.364Z,31.79
2022-12-18T23:51:52.389Z,35.66
2022-12-18T23:54:47.380Z,38.72
2022-12-18T23:57:42.585Z,41.10
